INFORMACIÓN METAR y TAF
METAR FOR LERS
ADDS - METARS form results

(1207 UTC 28 September 2020)
Data provider http://aviationweather.gov/metar/data/
 
METAR text: LERS 281200Z 27013KT CAVOK 23/08 Q1015
Conditions at: LERS (REUS (CIV/MIL) , ES) observed 1200 UTC 28 September 2020
Temperature: 23.0°C (73°F)
Dewpoint: 8.0°C (46°F) [RH = 38%]
Pressure (altimeter): 29.97 inches Hg (1015.0 mb)
Winds: from the W (270 degrees) at 15 MPH (13 knots; 6.7 m/s)
Visibility: 6 or more miles (10+ km)
Ceiling: ceiling and visibility are OK
Clouds: unknown
Weather: no significant weather observed at this time

METAR text: LERS 281130Z 27015KT CAVOK 22/07 Q1015
Conditions at: LERS (REUS (CIV/MIL) , ES) observed 1130 UTC 28 September 2020
Temperature: 22.0°C (72°F)
Dewpoint: 7.0°C (45°F) [RH = 38%]
Pressure (altimeter): 29.97 inches Hg (1015.0 mb)
Winds: from the W (270 degrees) at 17 MPH (15 knots; 7.7 m/s)
Visibility: 6 or more miles (10+ km)
Ceiling: ceiling and visibility are OK
Clouds: unknown
Weather: no significant weather observed at this time

Forecast for: LERS (REUS (CIV/MIL) , ES)
Text: TAF LERS 280800Z 2809/2909 29012KT CAVOK TX27/2812Z TN13/2905Z
Forecast period: 0900 to 1900 UTC 28 September 2020
Forecast type: FROM: standard forecast or significant change
Winds: from the WNW (290 degrees) at 14 MPH (12 knots; 6.2 m/s)
Visibility: 6 or more miles (10+ km)
Ceiling: unknown
Clouds: missing
Weather: no significant weather forecast for this period
Text: BECMG 2819/2821 VRB04KT
Forecast period: 1900 UTC 28 September 2020 to 0900 UTC 29 September 2020
Forecast type: BECOMING: Conditions expected to become as follows by 2100 UTC 28 September 2020
Winds: variable direction winds at 5 MPH (4 knots; 2.1 m/s)
Visibility: 6 or more miles (10+ km)
Ceiling: unknown
Clouds: missing
Weather: no significant weather forecast for this period

 MAPA DE AEROPUERTO

 INFORMACIÓN DE PISTA

 FRECUANCIAS DEL AEROPUERTO
Tipo APP Nombre APP Frecuencia 118.15 MHZ
Tipo GND Nombre GND Frecuencia 121.7 MHZ
Tipo TWR Nombre TWR Frecuencia 118.15 MHZ

 RADIO AYUDAS DEL AEROPUERTO
Tipo VOR-DME Nombre Reus Frecuencia 114200 KHZ
Tipo NDB Nombre Reus Frecuencia 424 KHZ